Time;durP1;ratioP1;P1;durP2;ratioP2;P2;SDS_P1;SDS_P2;PMS_P1;PMS_P2;Temp;Humidity;BMP_temperature;BMP_pressure;BME280_temperature;BME280_humidity;BME280_pressure;Samples;Min_cycle;Max_cycle;Signal;HPM_P1;HPM_P2
2023/06/11 00:02:05;;;;;;;7.25;5.18;;;;;;;;;;5059108;28;20024;-77
2023/06/11 00:04:34;;;;;;;7.75;5.38;;;;;;;;;;5055662;28;20059;-77
2023/06/11 00:07:02;;;;;;;8.52;5.25;;;;;;;;;;5057580;28;20077;-77
2023/06/11 00:09:28;;;;;;;8.70;5.22;;;;;;;;;;5061060;28;20391;-77
2023/06/11 00:11:53;;;;;;;7.22;5.07;;;;;;;;;;5064110;28;20076;-77
2023/06/11 00:14:20;;;;;;;6.45;4.90;;;;;;;;;;5084845;28;20025;-77
2023/06/11 00:16:45;;;;;;;7.57;5.15;;;;;;;;;;5079359;28;20016;-77
2023/06/11 00:19:12;;;;;;;7.10;5.32;;;;;;;;;;5076391;28;20900;-77
2023/06/11 00:21:43;;;;;;;7.57;5.20;;;;;;;;;;5057622;28;20111;-77
2023/06/11 00:24:11;;;;;;;6.43;5.20;;;;;;;;;;5079267;28;20023;-77
2023/06/11 00:26:36;;;;;;;7.93;5.10;;;;;;;;;;5080002;28;20047;-77
2023/06/11 00:29:01;;;;;;;6.10;5.00;;;;;;;;;;5075818;28;20555;-77
2023/06/11 00:31:27;;;;;;;6.45;5.45;;;;;;;;;;5054740;28;20519;-77
2023/06/11 00:33:52;;;;;;;7.53;5.15;;;;;;;;;;5078483;28;20028;-77
2023/06/11 00:36:17;;;;;;;9.90;5.53;;;;;;;;;;5074355;28;20029;-77
2023/06/11 00:38:43;;;;;;;6.70;5.10;;;;;;;;;;5054926;28;20017;-77
2023/06/11 00:41:08;;;;;;;7.00;5.28;;;;;;;;;;5082009;28;20026;-77
2023/06/11 00:43:34;;;;;;;6.88;5.32;;;;;;;;;;5073046;28;20028;-77
2023/06/11 00:46:02;;;;;;;6.53;5.50;;;;;;;;;;5061913;28;20031;-77
2023/06/11 00:48:27;;;;;;;6.68;5.32;;;;;;;;;;5076438;28;20032;-77
2023/06/11 00:50:53;;;;;;;8.00;5.30;;;;;;;;;;5066593;28;20020;-77
2023/06/11 00:53:21;;;;;;;7.40;5.75;;;;;;;;;;5072773;28;20020;-77
2023/06/11 00:55:46;;;;;;;7.07;5.65;;;;;;;;;;5063354;28;20465;-77
2023/06/11 00:58:13;;;;;;;6.15;5.28;;;;;;;;;;5078569;28;20092;-77
2023/06/11 01:00:54;;;;;;;6.45;5.15;;;;;;;;;;5059966;28;20401;-77
2023/06/11 01:03:26;;;;;;;7.82;5.55;;;;;;;;;;5062918;28;20020;-77
2023/06/11 01:06:17;;;;;;;6.20;5.05;;;;;;;;;;5085247;28;20526;-77
2023/06/11 01:08:44;;;;;;;6.20;5.20;;;;;;;;;;5063104;28;20170;-77
2023/06/11 01:11:21;;;;;;;9.57;5.43;;;;;;;;;;5078737;28;20388;-77
2023/06/11 01:13:47;;;;;;;6.93;5.85;;;;;;;;;;5077040;28;20070;-77
2023/06/11 01:16:19;;;;;;;6.82;6.00;;;;;;;;;;5075356;28;20465;-77
2023/06/11 01:19:24;;;;;;;6.60;5.30;;;;;;;;;;5078637;28;20079;-77
2023/06/11 01:21:59;;;;;;;7.00;6.05;;;;;;;;;;5052236;28;20072;-77
2023/06/11 01:24:53;;;;;;;7.68;5.72;;;;;;;;;;5063181;28;20452;-77
2023/06/11 01:27:49;;;;;;;6.70;6.00;;;;;;;;;;5075779;28;20082;-77
2023/06/11 01:30:20;;;;;;;6.75;5.38;;;;;;;;;;5070848;28;20044;-77
2023/06/11 01:32:52;;;;;;;6.40;5.70;;;;;;;;;;5074715;28;20495;-77
2023/06/11 01:35:17;;;;;;;7.60;5.85;;;;;;;;;;5065445;28;20032;-77
2023/06/11 01:37:45;;;;;;;6.85;5.75;;;;;;;;;;5061367;28;20111;-77
2023/06/11 01:40:12;;;;;;;7.90;5.82;;;;;;;;;;5061930;28;20031;-77
2023/06/11 01:42:38;;;;;;;7.32;6.00;;;;;;;;;;5056596;28;20384;-77
2023/06/11 01:45:04;;;;;;;7.63;5.70;;;;;;;;;;5060067;28;20099;-77
2023/06/11 01:47:29;;;;;;;7.57;5.60;;;;;;;;;;5080207;28;20089;-77
2023/06/11 01:49:54;;;;;;;6.63;5.82;;;;;;;;;;5060434;28;20056;-77
2023/06/11 01:52:20;;;;;;;8.45;6.28;;;;;;;;;;5059464;28;20020;-77
2023/06/11 01:54:45;;;;;;;8.55;6.10;;;;;;;;;;5055166;28;20024;-77
2023/06/11 01:57:11;;;;;;;8.15;5.85;;;;;;;;;;5074783;28;20046;-77
2023/06/11 01:59:36;;;;;;;7.05;6.00;;;;;;;;;;5079180;28;20118;-77
2023/06/11 02:02:01;;;;;;;7.25;5.90;;;;;;;;;;5074312;28;20030;-77
2023/06/11 02:04:27;;;;;;;6.85;5.90;;;;;;;;;;5084463;28;20024;-77
2023/06/11 02:06:52;;;;;;;7.53;5.80;;;;;;;;;;5058897;28;20039;-77
2023/06/11 02:09:17;;;;;;;7.57;6.13;;;;;;;;;;5077426;28;20024;-77
2023/06/11 02:11:43;;;;;;;7.47;5.63;;;;;;;;;;5083060;28;20523;-77
2023/06/11 02:14:08;;;;;;;7.05;5.78;;;;;;;;;;5081820;28;20063;-77
2023/06/11 02:16:33;;;;;;;8.65;6.43;;;;;;;;;;5078906;28;20055;-77
2023/06/11 02:18:59;;;;;;;8.38;6.50;;;;;;;;;;5060144;28;20037;-77
2023/06/11 02:21:24;;;;;;;7.13;6.00;;;;;;;;;;5083155;28;20119;-77
2023/06/11 02:23:49;;;;;;;6.70;6.00;;;;;;;;;;5061026;28;20481;-77
2023/06/11 02:26:15;;;;;;;7.28;5.68;;;;;;;;;;5078413;28;20100;-77
2023/06/11 02:28:40;;;;;;;8.77;5.68;;;;;;;;;;5067854;28;20078;-77
2023/06/11 02:31:06;;;;;;;7.10;6.03;;;;;;;;;;5060794;28;20610;-77
2023/06/11 02:33:31;;;;;;;7.75;6.35;;;;;;;;;;5081556;28;20032;-77
2023/06/11 02:35:56;;;;;;;9.65;6.25;;;;;;;;;;5061604;28;20017;-77
2023/06/11 02:38:22;;;;;;;7.57;5.70;;;;;;;;;;5076856;28;20024;-77
2023/06/11 02:40:47;;;;;;;9.95;6.20;;;;;;;;;;5061293;28;20141;-77
2023/06/11 02:43:12;;;;;;;8.15;5.75;;;;;;;;;;5081246;28;20071;-77
2023/06/11 02:45:38;;;;;;;8.40;6.10;;;;;;;;;;5077484;28;20025;-77
2023/06/11 02:48:03;;;;;;;7.60;5.88;;;;;;;;;;5077260;28;20560;-77
2023/06/11 02:50:28;;;;;;;7.68;6.22;;;;;;;;;;5062245;28;20032;-77
2023/06/11 02:52:54;;;;;;;8.23;6.10;;;;;;;;;;5059427;28;20024;-77
2023/06/11 02:55:19;;;;;;;7.65;6.38;;;;;;;;;;5067514;28;20028;-77
2023/06/11 02:57:44;;;;;;;7.35;6.15;;;;;;;;;;5080366;28;20036;-77
2023/06/11 03:00:11;;;;;;;7.18;6.22;;;;;;;;;;5078828;28;20020;-77
2023/06/11 03:02:36;;;;;;;8.63;6.20;;;;;;;;;;5075089;28;20074;-77
2023/06/11 03:05:02;;;;;;;7.35;6.30;;;;;;;;;;5076798;28;20358;-77
2023/06/11 03:07:27;;;;;;;8.30;5.85;;;;;;;;;;5075445;28;20028;-77
2023/06/11 03:09:53;;;;;;;8.05;6.57;;;;;;;;;;5055659;28;20020;-77
2023/06/11 03:12:18;;;;;;;8.13;6.40;;;;;;;;;;5058971;28;20034;-77
2023/06/11 03:14:44;;;;;;;11.68;7.07;;;;;;;;;;5065535;28;20084;-77
2023/06/11 03:17:09;;;;;;;9.75;6.75;;;;;;;;;;5057506;28;20484;-77
2023/06/11 03:19:34;;;;;;;9.52;6.55;;;;;;;;;;5071364;28;20020;-77
2023/06/11 03:22:00;;;;;;;9.65;6.53;;;;;;;;;;5081725;28;20020;-77
2023/06/11 03:24:25;;;;;;;7.60;6.47;;;;;;;;;;5076097;28;20050;-77
2023/06/11 03:26:51;;;;;;;6.85;6.13;;;;;;;;;;5058882;28;20074;-77
2023/06/11 03:29:16;;;;;;;8.27;6.65;;;;;;;;;;5078270;28;20032;-77
2023/06/11 03:31:41;;;;;;;8.82;6.60;;;;;;;;;;5058052;28;20036;-77
2023/06/11 03:34:07;;;;;;;8.60;6.53;;;;;;;;;;5060166;28;20032;-76
2023/06/11 03:36:33;;;;;;;8.48;6.50;;;;;;;;;;5058087;28;20064;-77
2023/06/11 03:38:58;;;;;;;8.13;6.45;;;;;;;;;;5078557;28;20377;-76
2023/06/11 03:41:25;;;;;;;8.70;6.32;;;;;;;;;;5056371;28;20084;-77
2023/06/11 03:43:51;;;;;;;8.60;6.22;;;;;;;;;;5079715;28;20468;-77
2023/06/11 03:46:17;;;;;;;9.02;6.38;;;;;;;;;;5073748;28;20024;-77
2023/06/11 03:48:42;;;;;;;7.60;5.95;;;;;;;;;;5080104;28;20027;-77
2023/06/11 03:51:07;;;;;;;7.53;6.28;;;;;;;;;;5056160;28;20032;-77
2023/06/11 03:53:33;;;;;;;7.68;6.50;;;;;;;;;;5076602;28;20029;-77
2023/06/11 03:55:58;;;;;;;6.85;6.15;;;;;;;;;;5073817;28;20021;-77
2023/06/11 03:58:23;;;;;;;7.10;6.05;;;;;;;;;;5077404;28;20052;-77
2023/06/11 04:00:49;;;;;;;8.18;6.40;;;;;;;;;;5057714;28;20093;-77
2023/06/11 04:03:15;;;;;;;8.45;6.45;;;;;;;;;;5073280;28;20036;-77
2023/06/11 04:05:41;;;;;;;6.95;6.15;;;;;;;;;;5073033;28;20023;-77
2023/06/11 04:08:06;;;;;;;7.32;6.20;;;;;;;;;;5059321;28;20024;-77
2023/06/11 04:10:32;;;;;;;7.80;6.38;;;;;;;;;;5075440;28;20028;-77
2023/06/11 04:12:57;;;;;;;8.32;6.22;;;;;;;;;;5063012;28;20028;-77
2023/06/11 04:15:22;;;;;;;7.38;6.47;;;;;;;;;;5056555;28;20028;-76
2023/06/11 04:17:48;;;;;;;8.05;6.13;;;;;;;;;;5083408;28;20058;-77
2023/06/11 04:20:13;;;;;;;7.50;6.50;;;;;;;;;;5081742;28;20472;-77
2023/06/11 04:22:39;;;;;;;7.50;6.63;;;;;;;;;;5078384;28;20118;-77
2023/06/11 04:25:06;;;;;;;8.73;6.65;;;;;;;;;;5065087;28;20013;-77
2023/06/11 04:27:33;;;;;;;8.93;6.30;;;;;;;;;;5060796;28;20039;-76
2023/06/11 04:30:03;;;;;;;8.60;6.60;;;;;;;;;;5060289;28;20534;-77
2023/06/11 04:32:34;;;;;;;7.47;6.30;;;;;;;;;;5062122;28;20558;-76
2023/06/11 04:35:03;;;;;;;7.75;6.00;;;;;;;;;;5080463;28;20028;-77
2023/06/11 04:37:30;;;;;;;7.43;6.55;;;;;;;;;;5060985;28;20047;-76
2023/06/11 04:40:00;;;;;;;8.65;6.60;;;;;;;;;;5072918;28;20035;-77
2023/06/11 04:42:25;;;;;;;8.60;6.60;;;;;;;;;;5077316;28;20046;-77
2023/06/11 04:44:52;;;;;;;7.68;6.65;;;;;;;;;;5082244;28;20448;-77
2023/06/11 04:47:22;;;;;;;9.68;6.97;;;;;;;;;;5063804;28;20020;-77
2023/06/11 04:49:52;;;;;;;8.57;6.72;;;;;;;;;;5060615;28;20024;-77
2023/06/11 04:52:18;;;;;;;8.20;6.68;;;;;;;;;;5054983;28;20060;-77
2023/06/11 04:54:44;;;;;;;8.07;7.10;;;;;;;;;;5076075;28;20055;-77
2023/06/11 04:57:10;;;;;;;8.50;7.03;;;;;;;;;;5058433;28;20499;-77
2023/06/11 04:59:36;;;;;;;8.77;7.50;;;;;;;;;;5078740;28;20062;-77
2023/06/11 05:02:01;;;;;;;10.60;7.68;;;;;;;;;;5079554;28;20558;-77
2023/06/11 05:04:27;;;;;;;8.32;6.85;;;;;;;;;;5066672;28;20491;-77
2023/06/11 05:06:54;;;;;;;7.20;6.50;;;;;;;;;;5075757;28;20406;-76
2023/06/11 05:09:20;;;;;;;8.75;7.18;;;;;;;;;;5061497;28;20023;-76
2023/06/11 05:11:45;;;;;;;10.90;7.15;;;;;;;;;;5073475;28;20023;-77
2023/06/11 05:14:11;;;;;;;8.15;7.35;;;;;;;;;;5065075;28;20168;-77
2023/06/11 05:16:37;;;;;;;8.20;7.40;;;;;;;;;;5057792;28;20020;-76
2023/06/11 05:19:03;;;;;;;8.13;7.00;;;;;;;;;;5078841;28;20511;-77
2023/06/11 05:21:29;;;;;;;9.80;7.75;;;;;;;;;;5080942;28;20468;-77
2023/06/11 05:23:56;;;;;;;9.32;8.05;;;;;;;;;;5058365;28;20028;-77
2023/06/11 05:26:33;;;;;;;8.50;7.60;;;;;;;;;;5084725;28;20016;-77
2023/06/11 05:28:59;;;;;;;10.57;8.30;;;;;;;;;;5059252;28;20031;-77
2023/06/11 05:31:24;;;;;;;11.45;8.18;;;;;;;;;;5059376;28;20024;-77
2023/06/11 05:33:50;;;;;;;9.43;7.70;;;;;;;;;;5075821;28;20118;-77
2023/06/11 05:36:16;;;;;;;10.02;7.95;;;;;;;;;;5081010;28;20035;-77
2023/06/11 05:38:42;;;;;;;10.25;7.43;;;;;;;;;;5063015;28;20036;-77
2023/06/11 05:41:08;;;;;;;10.88;7.40;;;;;;;;;;5080138;28;20029;-77
2023/06/11 05:43:33;;;;;;;10.25;8.10;;;;;;;;;;5060662;28;20032;-76
2023/06/11 05:45:58;;;;;;;8.30;7.40;;;;;;;;;;5067579;28;20115;-77
2023/06/11 05:48:26;;;;;;;10.25;7.57;;;;;;;;;;5075262;28;20545;-77
2023/06/11 05:50:52;;;;;;;10.25;8.15;;;;;;;;;;5053969;28;20396;-77
2023/06/11 05:53:17;;;;;;;10.55;8.13;;;;;;;;;;5077296;28;20027;-77
2023/06/11 05:55:43;;;;;;;8.32;7.43;;;;;;;;;;5080079;28;20028;-77
2023/06/11 05:58:08;;;;;;;9.23;7.80;;;;;;;;;;5061254;28;20035;-77
2023/06/11 06:00:33;;;;;;;11.10;7.90;;;;;;;;;;5062846;28;20023;-77
2023/06/11 06:03:01;;;;;;;9.35;7.90;;;;;;;;;;5075750;28;20472;-76
2023/06/11 06:05:27;;;;;;;9.65;8.02;;;;;;;;;;5075686;28;20468;-77
2023/06/11 06:07:52;;;;;;;9.35;7.95;;;;;;;;;;5054232;28;20028;-76
2023/06/11 06:10:17;;;;;;;9.30;6.97;;;;;;;;;;5058414;28;20385;-77
2023/06/11 06:12:43;;;;;;;7.68;6.80;;;;;;;;;;5057463;28;20362;-77
2023/06/11 06:15:09;;;;;;;8.85;6.60;;;;;;;;;;5080404;28;20107;-77
2023/06/11 06:17:34;;;;;;;8.00;7.13;;;;;;;;;;5060920;28;20120;-77
2023/06/11 06:19:59;;;;;;;9.10;6.80;;;;;;;;;;5060310;28;20035;-76
2023/06/11 06:22:25;;;;;;;9.38;7.03;;;;;;;;;;5053925;28;20028;-77
2023/06/11 06:24:50;;;;;;;8.90;6.93;;;;;;;;;;5076362;28;20069;-77
2023/06/11 06:27:16;;;;;;;8.43;6.75;;;;;;;;;;5078321;28;20031;-77
2023/06/11 06:29:41;;;;;;;11.20;7.10;;;;;;;;;;5056455;28;20503;-77
2023/06/11 06:32:07;;;;;;;8.40;7.20;;;;;;;;;;5074923;28;20028;-77
2023/06/11 06:34:33;;;;;;;8.77;7.18;;;;;;;;;;5074510;28;20054;-77
2023/06/11 06:36:58;;;;;;;10.18;7.18;;;;;;;;;;5073500;28;20039;-77
2023/06/11 06:39:23;;;;;;;9.73;7.53;;;;;;;;;;5056792;28;20430;-76
2023/06/11 06:41:49;;;;;;;9.05;7.25;;;;;;;;;;5072757;28;20031;-77
2023/06/11 06:44:15;;;;;;;9.32;7.28;;;;;;;;;;5075497;28;20024;-77
2023/06/11 06:46:40;;;;;;;8.40;6.90;;;;;;;;;;5076778;28;20465;-77
2023/06/11 06:49:06;;;;;;;9.40;7.25;;;;;;;;;;5055331;28;20033;-77
2023/06/11 06:51:32;;;;;;;8.50;6.90;;;;;;;;;;5056953;28;20450;-77
2023/06/11 06:53:58;;;;;;;8.50;6.78;;;;;;;;;;5075712;28;20039;-76
2023/06/11 06:56:23;;;;;;;8.20;7.22;;;;;;;;;;5078748;28;20028;-77
2023/06/11 06:58:49;;;;;;;7.65;6.80;;;;;;;;;;5055607;28;20028;-77
2023/06/11 07:01:15;;;;;;;8.07;6.82;;;;;;;;;;5058805;28;20032;-76
2023/06/11 07:03:41;;;;;;;8.20;6.93;;;;;;;;;;5062872;28;20019;-77
2023/06/11 07:06:08;;;;;;;8.18;7.32;;;;;;;;;;5079543;28;20415;-76
2023/06/11 07:08:33;;;;;;;10.48;7.22;;;;;;;;;;5054685;28;20037;-77
2023/06/11 07:10:58;;;;;;;10.65;6.90;;;;;;;;;;5076193;28;20450;-77
2023/06/11 07:13:24;;;;;;;7.55;6.78;;;;;;;;;;5057127;28;20464;-77
2023/06/11 07:15:50;;;;;;;9.63;7.30;;;;;;;;;;5056385;28;20094;-76
2023/06/11 07:18:16;;;;;;;9.43;7.00;;;;;;;;;;5058815;28;20020;-77
2023/06/11 07:20:42;;;;;;;7.80;6.97;;;;;;;;;;5066974;28;20035;-77
2023/06/11 07:23:07;;;;;;;8.45;7.10;;;;;;;;;;5055840;28;20503;-77
2023/06/11 07:25:33;;;;;;;8.70;7.18;;;;;;;;;;5055823;28;20013;-77
2023/06/11 07:28:01;;;;;;;10.65;7.15;;;;;;;;;;5072311;28;20078;-76
2023/06/11 07:30:29;;;;;;;8.20;7.15;;;;;;;;;;5052844;28;20182;-77
2023/06/11 07:32:55;;;;;;;8.00;6.93;;;;;;;;;;5066706;28;20050;-77
2023/06/11 07:35:21;;;;;;;7.88;7.05;;;;;;;;;;5076125;28;20379;-77
2023/06/11 07:37:47;;;;;;;8.45;7.57;;;;;;;;;;5059922;28;20020;-77
2023/06/11 07:40:12;;;;;;;9.15;7.07;;;;;;;;;;5072973;28;20043;-77
2023/06/11 07:42:38;;;;;;;9.60;6.90;;;;;;;;;;5071620;28;20028;-77
2023/06/11 07:45:06;;;;;;;9.07;6.82;;;;;;;;;;5055428;28;20025;-77
2023/06/11 07:47:32;;;;;;;9.35;7.10;;;;;;;;;;5057807;28;20036;-77
2023/06/11 07:49:57;;;;;;;8.80;7.20;;;;;;;;;;5058995;28;20496;-77
2023/06/11 07:52:22;;;;;;;10.15;7.20;;;;;;;;;;5058694;28;20036;-77
2023/06/11 07:54:48;;;;;;;9.35;7.05;;;;;;;;;;5057647;28;20059;-77
2023/06/11 07:57:13;;;;;;;7.93;6.85;;;;;;;;;;5056025;28;20032;-76
2023/06/11 07:59:40;;;;;;;11.00;7.32;;;;;;;;;;5059749;28;20078;-77
2023/06/11 08:02:07;;;;;;;9.07;6.88;;;;;;;;;;5078608;28;20047;-77
2023/06/11 08:04:32;;;;;;;8.65;7.10;;;;;;;;;;5069705;28;20112;-77
2023/06/11 08:06:58;;;;;;;9.93;7.18;;;;;;;;;;5058298;28;20551;-77
2023/06/11 08:09:23;;;;;;;6.88;6.18;;;;;;;;;;5051432;28;20129;-76
2023/06/11 08:11:49;;;;;;;8.65;6.45;;;;;;;;;;5049699;28;20025;-77
2023/06/11 08:14:18;;;;;;;10.20;7.00;;;;;;;;;;5072539;28;20082;-76
2023/06/11 08:16:44;;;;;;;8.18;5.85;;;;;;;;;;5051617;28;20043;-77
2023/06/11 08:19:10;;;;;;;8.30;6.72;;;;;;;;;;5055542;28;21445;-76
2023/06/11 08:21:35;;;;;;;8.15;7.22;;;;;;;;;;5066953;28;20036;-77
2023/06/11 08:24:01;;;;;;;7.90;6.95;;;;;;;;;;5071682;28;20036;-77
2023/06/11 08:26:27;;;;;;;8.75;6.60;;;;;;;;;;5076661;28;20021;-78
2023/06/11 08:28:52;;;;;;;8.00;6.97;;;;;;;;;;5059126;28;20033;-78
2023/06/11 08:31:18;;;;;;;7.95;6.40;;;;;;;;;;5054544;28;20383;-77
2023/06/11 08:33:44;;;;;;;8.32;6.00;;;;;;;;;;5076059;28;20513;-77
2023/06/11 08:36:09;;;;;;;8.48;6.53;;;;;;;;;;5055094;28;20024;-77
2023/06/11 08:38:35;;;;;;;8.40;6.47;;;;;;;;;;5073483;28;20111;-77
2023/06/11 08:41:00;;;;;;;8.50;6.28;;;;;;;;;;5074976;28;20112;-78
2023/06/11 08:43:26;;;;;;;7.28;6.28;;;;;;;;;;5071514;28;20099;-78
2023/06/11 08:45:51;;;;;;;7.93;6.15;;;;;;;;;;5052804;28;20052;-77
2023/06/11 08:48:20;;;;;;;6.88;6.18;;;;;;;;;;5073842;28;20036;-77
2023/06/11 08:50:48;;;;;;;7.38;5.78;;;;;;;;;;5070113;28;20158;-77
2023/06/11 08:53:13;;;;;;;8.57;6.05;;;;;;;;;;5076739;28;20103;-78
2023/06/11 08:55:39;;;;;;;6.85;6.03;;;;;;;;;;5054040;28;20177;-77
2023/06/11 08:58:05;;;;;;;7.00;5.97;;;;;;;;;;5075332;28;20021;-77
2023/06/11 09:00:30;;;;;;;6.40;5.65;;;;;;;;;;5058184;28;20119;-77
2023/06/11 09:02:56;;;;;;;6.75;5.75;;;;;;;;;;5049166;28;20173;-77
2023/06/11 09:05:22;;;;;;;7.15;5.68;;;;;;;;;;5046121;28;20024;-78
2023/06/11 09:07:49;;;;;;;6.63;5.63;;;;;;;;;;5073886;28;20381;-77
2023/06/11 09:10:15;;;;;;;6.72;5.43;;;;;;;;;;5072219;28;20035;-78
2023/06/11 09:12:40;;;;;;;6.45;5.22;;;;;;;;;;5055410;28;20024;-78
2023/06/11 09:15:06;;;;;;;5.90;5.30;;;;;;;;;;5050307;28;20114;-78
2023/06/11 09:17:40;;;;;;;6.25;5.63;;;;;;;;;;5072316;28;20024;-77
2023/06/11 09:20:08;;;;;;;6.93;5.25;;;;;;;;;;5058241;28;20491;-78
2023/06/11 09:22:36;;;;;;;6.43;5.40;;;;;;;;;;5058633;28;20079;-78
2023/06/11 09:25:06;;;;;;;7.65;5.70;;;;;;;;;;5057052;28;20029;-78
2023/06/11 09:27:32;;;;;;;8.30;5.70;;;;;;;;;;5057960;28;20120;-78
2023/06/11 09:30:23;;;;;;;7.68;5.30;;;;;;;;;;5053552;28;20110;-77
2023/06/11 09:32:49;;;;;;;6.40;5.57;;;;;;;;;;5073427;28;20039;-78
2023/06/11 09:35:15;;;;;;;8.18;5.30;;;;;;;;;;5053026;28;20028;-78
2023/06/11 09:37:45;;;;;;;7.47;5.28;;;;;;;;;;5052628;28;20031;-78
2023/06/11 09:40:19;;;;;;;7.90;5.65;;;;;;;;;;5052868;28;20028;-78
2023/06/11 09:42:46;;;;;;;5.78;5.18;;;;;;;;;;5060906;28;20559;-78
2023/06/11 09:45:17;;;;;;;6.65;5.40;;;;;;;;;;5041536;28;20229;-78
2023/06/11 09:47:47;;;;;;;6.65;5.40;;;;;;;;;;5069722;28;20534;-78
2023/06/11 09:50:14;;;;;;;7.13;5.57;;;;;;;;;;5050573;28;20077;-78
2023/06/11 09:52:41;;;;;;;6.63;5.93;;;;;;;;;;5049863;28;20094;-78
2023/06/11 09:55:08;;;;;;;6.07;5.22;;;;;;;;;;5051551;28;20024;-77
2023/06/11 09:57:33;;;;;;;7.65;5.15;;;;;;;;;;5053676;28;20519;-78
2023/06/11 09:59:59;;;;;;;6.85;4.88;;;;;;;;;;5052984;28;20033;-78
2023/06/11 10:02:25;;;;;;;6.10;4.90;;;;;;;;;;5052680;28;20032;-77
2023/06/11 10:04:50;;;;;;;6.03;4.93;;;;;;;;;;5069621;28;20437;-77
2023/06/11 10:07:17;;;;;;;8.13;5.63;;;;;;;;;;5054628;28;20024;-78
2023/06/11 10:09:45;;;;;;;7.15;5.00;;;;;;;;;;5070483;28;20479;-77
2023/06/11 10:12:11;;;;;;;6.97;4.75;;;;;;;;;;5048883;28;20148;-77
2023/06/11 10:14:39;;;;;;;6.10;4.75;;;;;;;;;;5068525;28;20543;-77
2023/06/11 10:17:08;;;;;;;5.25;4.40;;;;;;;;;;5072775;28;20024;-77
2023/06/11 10:19:36;;;;;;;5.78;4.78;;;;;;;;;;5074306;28;20027;-77
2023/06/11 10:22:01;;;;;;;6.50;4.28;;;;;;;;;;5052246;28;20044;-77
2023/06/11 10:24:28;;;;;;;5.40;4.60;;;;;;;;;;5049409;28;20345;-77
2023/06/11 10:27:07;;;;;;;5.93;4.75;;;;;;;;;;5069304;28;20415;-77
2023/06/11 10:29:41;;;;;;;6.15;4.45;;;;;;;;;;5069818;28;20063;-77
2023/06/11 10:32:16;;;;;;;8.13;4.28;;;;;;;;;;5060792;28;20028;-77
2023/06/11 10:34:42;;;;;;;5.57;4.38;;;;;;;;;;5040812;28;20043;-77
2023/06/11 10:37:09;;;;;;;6.45;4.72;;;;;;;;;;5050174;28;20035;-78
2023/06/11 10:39:35;;;;;;;5.88;4.57;;;;;;;;;;5072169;28;20028;-77
2023/06/11 10:42:02;;;;;;;5.00;3.92;;;;;;;;;;5054033;28;20480;-77
2023/06/11 10:44:29;;;;;;;5.00;4.38;;;;;;;;;;5051531;28;20121;-77
2023/06/11 10:46:55;;;;;;;5.25;4.63;;;;;;;;;;5064793;28;20055;-78
2023/06/11 10:49:27;;;;;;;5.72;4.60;;;;;;;;;;5054068;28;20098;-77
2023/06/11 10:51:53;;;;;;;7.03;4.57;;;;;;;;;;5070808;28;20032;-77
2023/06/11 10:54:33;;;;;;;8.68;4.60;;;;;;;;;;5077073;28;20342;-77
2023/06/11 10:57:00;;;;;;;4.93;4.00;;;;;;;;;;5076026;28;20032;-77
2023/06/11 10:59:28;;;;;;;5.13;4.30;;;;;;;;;;5069553;28;20122;-78
2023/06/11 11:01:53;;;;;;;6.65;5.03;;;;;;;;;;5054981;28;20028;-77
2023/06/11 11:04:21;;;;;;;5.70;4.65;;;;;;;;;;5053390;28;20506;-77
2023/06/11 11:06:46;;;;;;;7.30;4.47;;;;;;;;;;5060499;28;20028;-77
2023/06/11 11:09:12;;;;;;;5.50;4.55;;;;;;;;;;5053210;28;20063;-78
2023/06/11 11:11:40;;;;;;;5.88;4.30;;;;;;;;;;5069156;28;20074;-78
2023/06/11 11:14:06;;;;;;;6.25;4.18;;;;;;;;;;5061247;28;20056;-76
2023/06/11 11:16:31;;;;;;;4.82;3.80;;;;;;;;;;5070515;28;20597;-76
2023/06/11 11:18:56;;;;;;;5.30;3.97;;;;;;;;;;5070901;28;20028;-77
2023/06/11 11:21:29;;;;;;;5.53;3.92;;;;;;;;;;5074552;28;20048;-77
2023/06/11 11:23:55;;;;;;;4.40;3.75;;;;;;;;;;5067693;28;20035;-77
2023/06/11 11:26:20;;;;;;;5.53;4.20;;;;;;;;;;5068200;28;20028;-77
2023/06/11 11:28:46;;;;;;;4.60;3.92;;;;;;;;;;5067034;28;20032;-77
2023/06/11 11:31:16;;;;;;;5.20;3.67;;;;;;;;;;5067530;28;20131;-77
2023/06/11 11:33:41;;;;;;;4.57;3.67;;;;;;;;;;5066924;28;20268;-77
2023/06/11 11:36:07;;;;;;;4.20;3.38;;;;;;;;;;5049013;28;20032;-77
2023/06/11 11:38:37;;;;;;;4.60;3.30;;;;;;;;;;5068090;28;20505;-77
2023/06/11 11:41:06;;;;;;;5.07;3.45;;;;;;;;;;5071542;28;20039;-77
2023/06/11 11:43:39;;;;;;;4.70;3.33;;;;;;;;;;5056601;28;20462;-77
2023/06/11 11:46:16;;;;;;;4.53;3.33;;;;;;;;;;5073361;28;20044;-77
2023/06/11 11:48:42;;;;;;;5.13;3.08;;;;;;;;;;5069366;28;20028;-77
2023/06/11 11:51:08;;;;;;;3.92;2.90;;;;;;;;;;5059841;28;20034;-77
2023/06/11 11:53:33;;;;;;;4.72;3.53;;;;;;;;;;5062598;28;20034;-77
2023/06/11 11:55:58;;;;;;;5.05;3.53;;;;;;;;;;5067630;28;20082;-77
2023/06/11 11:58:24;;;;;;;4.45;3.35;;;;;;;;;;5070255;28;20036;-77
2023/06/11 12:00:54;;;;;;;4.90;3.20;;;;;;;;;;5072211;28;20054;-77
2023/06/11 12:03:21;;;;;;;4.18;3.22;;;;;;;;;;5072009;28;20031;-77
2023/06/11 12:06:00;;;;;;;4.47;3.38;;;;;;;;;;5053369;28;20039;-77
2023/06/11 12:08:26;;;;;;;4.40;3.10;;;;;;;;;;5051560;28;20032;-77
2023/06/11 12:10:52;;;;;;;4.18;3.33;;;;;;;;;;5046909;28;20498;-77
2023/06/11 12:13:18;;;;;;;4.05;3.17;;;;;;;;;;5051773;28;20032;-78
2023/06/11 12:15:43;;;;;;;5.07;3.35;;;;;;;;;;5048854;28;20020;-77
2023/06/11 12:18:09;;;;;;;4.38;3.00;;;;;;;;;;5071378;28;20556;-77
2023/06/11 12:20:34;;;;;;;5.80;3.15;;;;;;;;;;5048547;28;20142;-77
2023/06/11 12:22:59;;;;;;;4.75;3.17;;;;;;;;;;5065921;28;20446;-77
2023/06/11 12:25:25;;;;;;;4.72;3.40;;;;;;;;;;5048373;28;20377;-77
2023/06/11 12:27:51;;;;;;;4.32;3.05;;;;;;;;;;5047101;28;20534;-76
2023/06/11 12:30:17;;;;;;;4.88;3.40;;;;;;;;;;5053663;28;20121;-77
2023/06/11 12:32:42;;;;;;;4.88;3.40;;;;;;;;;;5071484;28;20048;-76
2023/06/11 12:35:08;;;;;;;6.20;3.15;;;;;;;;;;5058531;28;20393;-76
2023/06/11 12:37:34;;;;;;;5.75;3.35;;;;;;;;;;5069900;28;20111;-76
2023/06/11 12:40:00;;;;;;;4.32;3.00;;;;;;;;;;5083381;28;20038;-77
2023/06/11 12:42:27;;;;;;;4.57;3.00;;;;;;;;;;5073124;28;20043;-76
2023/06/11 12:44:52;;;;;;;4.47;3.40;;;;;;;;;;5072374;28;20029;-76
2023/06/11 12:47:18;;;;;;;4.35;3.13;;;;;;;;;;5075217;28;20035;-76
2023/06/11 12:49:43;;;;;;;5.50;2.97;;;;;;;;;;5053856;28;20086;-77
2023/06/11 12:52:12;;;;;;;4.95;2.70;;;;;;;;;;5080343;28;20089;-77
2023/06/11 12:54:39;;;;;;;3.88;2.85;;;;;;;;;;5058189;28;20547;-77
2023/06/11 12:57:05;;;;;;;3.97;3.10;;;;;;;;;;5063676;28;20039;-76
2023/06/11 12:59:30;;;;;;;5.22;3.17;;;;;;;;;;5053023;28;20055;-77
2023/06/11 13:01:56;;;;;;;4.45;3.42;;;;;;;;;;5055093;28;20048;-77
2023/06/11 13:04:22;;;;;;;6.00;3.50;;;;;;;;;;5079377;28;20044;-77
2023/06/11 13:06:47;;;;;;;4.40;3.30;;;;;;;;;;5073496;28;20369;-76
2023/06/11 13:09:14;;;;;;;5.20;3.20;;;;;;;;;;5084859;28;20111;-77
2023/06/11 13:11:40;;;;;;;5.78;3.15;;;;;;;;;;5090041;28;20539;-77
2023/06/11 13:14:06;;;;;;;5.05;3.28;;;;;;;;;;5077315;28;20031;-76
2023/06/11 13:16:31;;;;;;;6.18;3.38;;;;;;;;;;5091110;28;20028;-77
2023/06/11 13:19:02;;;;;;;4.07;3.30;;;;;;;;;;5068582;28;20028;-77
2023/06/11 13:21:28;;;;;;;4.72;3.03;;;;;;;;;;5082672;28;20028;-76
2023/06/11 13:23:53;;;;;;;4.47;3.20;;;;;;;;;;5078349;28;20039;-77
2023/06/11 13:26:18;;;;;;;3.97;3.08;;;;;;;;;;5082403;28;20024;-76
2023/06/11 13:28:44;;;;;;;4.40;3.10;;;;;;;;;;5076097;28;20043;-76
2023/06/11 13:31:13;;;;;;;7.05;3.78;;;;;;;;;;5064149;28;20392;-77
2023/06/11 13:33:38;;;;;;;4.85;3.33;;;;;;;;;;5080574;28;20035;-77
2023/06/11 13:36:04;;;;;;;4.78;3.20;;;;;;;;;;5081001;28;20032;-76
2023/06/11 13:38:30;;;;;;;4.78;3.80;;;;;;;;;;5082530;28;20107;-76
2023/06/11 13:40:56;;;;;;;5.95;4.03;;;;;;;;;;5078493;28;20028;-77
2023/06/11 13:43:21;;;;;;;5.65;3.60;;;;;;;;;;5084654;28;20404;-76
2023/06/11 13:45:48;;;;;;;5.50;3.60;;;;;;;;;;5064117;28;20082;-76
2023/06/11 13:48:15;;;;;;;5.05;3.60;;;;;;;;;;5070550;28;20119;-76
2023/06/11 13:50:44;;;;;;;5.55;3.80;;;;;;;;;;5080747;28;20060;-77
2023/06/11 13:53:09;;;;;;;3.80;3.38;;;;;;;;;;5087355;28;20028;-76
2023/06/11 13:55:35;;;;;;;4.07;2.95;;;;;;;;;;5085229;28;20078;-76
2023/06/11 13:58:01;;;;;;;6.88;2.90;;;;;;;;;;5088674;28;20497;-76
2023/06/11 14:00:26;;;;;;;3.95;3.28;;;;;;;;;;5085352;28;20028;-77
2023/06/11 14:02:52;;;;;;;6.53;3.72;;;;;;;;;;5085840;28;20032;-77
2023/06/11 14:05:17;;;;;;;5.57;3.47;;;;;;;;;;5082206;28;20425;-77
2023/06/11 14:07:43;;;;;;;5.57;3.30;;;;;;;;;;5085085;28;20481;-77
2023/06/11 14:10:09;;;;;;;6.70;3.47;;;;;;;;;;5069607;28;20043;-77
2023/06/11 14:12:34;;;;;;;5.38;3.65;;;;;;;;;;5085257;28;20024;-77
2023/06/11 14:15:00;;;;;;;4.88;3.50;;;;;;;;;;5061356;28;20447;-76
2023/06/11 14:17:25;;;;;;;4.70;3.90;;;;;;;;;;5082692;28;20111;-76
2023/06/11 14:19:50;;;;;;;6.68;3.90;;;;;;;;;;5082024;28;20369;-77
2023/06/11 14:22:16;;;;;;;5.30;4.05;;;;;;;;;;5068675;28;20023;-77
2023/06/11 14:24:42;;;;;;;5.20;3.90;;;;;;;;;;5085136;28;20031;-77
2023/06/11 14:27:08;;;;;;;5.15;3.78;;;;;;;;;;5093219;28;20045;-77
2023/06/11 14:29:33;;;;;;;5.20;3.97;;;;;;;;;;5067473;28;20483;-77
2023/06/11 14:32:00;;;;;;;5.15;3.70;;;;;;;;;;5087456;28;20027;-77
2023/06/11 14:34:25;;;;;;;5.43;3.70;;;;;;;;;;5065610;28;20439;-77
2023/06/11 14:36:50;;;;;;;5.03;3.88;;;;;;;;;;5069389;28;20033;-76
2023/06/11 14:39:17;;;;;;;5.07;3.75;;;;;;;;;;5074915;28;20021;-77
2023/06/11 14:41:43;;;;;;;6.82;3.90;;;;;;;;;;5098177;28;20056;-76